sensor_id;sensor_type;location;lat;lon;timestamp;pressure;altitude;pressure_sealevel;temperature;humidity
54022;BME280;39936;51.058;17.220;2023-05-10T00:03:09;101786.37;;;7.81;67.91
54022;BME280;39936;51.058;17.220;2023-05-10T00:06:45;101781.77;;;7.76;68.48
54022;BME280;39936;51.058;17.220;2023-05-10T00:10:01;101747.14;;;7.53;68.68
54022;BME280;39936;51.058;17.220;2023-05-10T00:13:21;101773.85;;;7.65;69.06
54022;BME280;39936;51.058;17.220;2023-05-10T00:17:21;101771.71;;;7.62;68.96
54022;BME280;39936;51.058;17.220;2023-05-10T00:21:09;101770.66;;;7.62;69.23
54022;BME280;39936;51.058;17.220;2023-05-10T00:25:05;101770.55;;;7.65;69.15
54022;BME280;39936;51.058;17.220;2023-05-10T00:28:27;101772.05;;;7.68;69.29
54022;BME280;39936;51.058;17.220;2023-05-10T00:32:39;101769.30;;;7.68;69.34
54022;BME280;39936;51.058;17.220;2023-05-10T00:40:17;101768.99;;;7.74;69.40
54022;BME280;39936;51.058;17.220;2023-05-10T00:45:08;101761.30;;;7.72;69.13
54022;BME280;39936;51.058;17.220;2023-05-10T00:48:26;101763.09;;;7.75;69.13
54022;BME280;39936;51.058;17.220;2023-05-10T00:51:44;101762.93;;;7.73;69.32
54022;BME280;39936;51.058;17.220;2023-05-10T00:55:25;101761.74;;;7.70;69.65
54022;BME280;39936;51.058;17.220;2023-05-10T00:58:42;101758.63;;;7.63;69.68
54022;BME280;39936;51.058;17.220;2023-05-10T01:02:03;101758.46;;;7.64;69.92
54022;BME280;39936;51.058;17.220;2023-05-10T01:10:15;101755.63;;;7.65;70.02
54022;BME280;39936;51.058;17.220;2023-05-10T01:13:50;101753.13;;;7.67;70.06
54022;BME280;39936;51.058;17.220;2023-05-10T01:17:27;101751.63;;;7.69;69.95
54022;BME280;39936;51.058;17.220;2023-05-10T01:37:30;101746.77;;;7.53;70.57
54022;BME280;39936;51.058;17.220;2023-05-10T01:41:25;101716.13;;;7.27;70.95
54022;BME280;39936;51.058;17.220;2023-05-10T01:49:54;101712.83;;;7.27;71.01
54022;BME280;39936;51.058;17.220;2023-05-10T01:53:36;101752.66;;;7.36;72.00
54022;BME280;39936;51.058;17.220;2023-05-10T01:57:06;101750.58;;;7.17;72.98
54022;BME280;39936;51.058;17.220;2023-05-10T02:00:35;101750.70;;;7.04;73.71
54022;BME280;39936;51.058;17.220;2023-05-10T02:11:23;101745.88;;;6.73;75.66
54022;BME280;39936;51.058;17.220;2023-05-10T02:14:43;101748.13;;;6.64;76.23
54022;BME280;39936;51.058;17.220;2023-05-10T02:18:22;101741.77;;;6.53;76.83
54022;BME280;39936;51.058;17.220;2023-05-10T02:21:53;101742.52;;;6.50;77.21
54022;BME280;39936;51.058;17.220;2023-05-10T02:25:36;101713.79;;;6.29;77.37
54022;BME280;39936;51.058;17.220;2023-05-10T02:28:58;101737.88;;;6.43;77.59
54022;BME280;39936;51.058;17.220;2023-05-10T02:32:31;101740.08;;;6.40;77.90
54022;BME280;39936;51.058;17.220;2023-05-10T02:36:33;101739.45;;;6.38;78.11
54022;BME280;39936;51.058;17.220;2023-05-10T02:39:56;101708.84;;;6.22;77.78
54022;BME280;39936;51.058;17.220;2023-05-10T02:43:14;101739.04;;;6.50;77.51
54022;BME280;39936;51.058;17.220;2023-05-10T02:47:07;101703.59;;;6.39;76.80
54022;BME280;39936;51.058;17.220;2023-05-10T02:50:27;101729.51;;;6.79;75.65
54022;BME280;39936;51.058;17.220;2023-05-10T02:54:46;101726.96;;;6.94;74.74
54022;BME280;39936;51.058;17.220;2023-05-10T02:58:59;101723.45;;;7.14;73.31
54022;BME280;39936;51.058;17.220;2023-05-10T03:06:26;101732.14;;;7.37;71.87
54022;BME280;39936;51.058;17.220;2023-05-10T03:17:55;101733.05;;;7.47;71.07
54022;BME280;39936;51.058;17.220;2023-05-10T03:21:59;101735.86;;;7.50;71.02
54022;BME280;39936;51.058;17.220;2023-05-10T03:25:58;101734.59;;;7.71;70.51
54022;BME280;39936;51.058;17.220;2023-05-10T03:29:17;101709.01;;;7.81;69.47
54022;BME280;39936;51.058;17.220;2023-05-10T03:32:50;101735.43;;;8.11;68.90
54022;BME280;39936;51.058;17.220;2023-05-10T03:41:09;101722.53;;;8.54;67.47
54022;BME280;39936;51.058;17.220;2023-05-10T03:44:49;101717.62;;;9.14;65.19
54022;BME280;39936;51.058;17.220;2023-05-10T03:48:43;101691.59;;;9.61;62.77
54022;BME280;39936;51.058;17.220;2023-05-10T03:52:00;101710.17;;;10.39;60.16
54022;BME280;39936;51.058;17.220;2023-05-10T03:56:22;101702.05;;;10.79;58.65
54022;BME280;39936;51.058;17.220;2023-05-10T04:00:03;101701.73;;;10.86;57.50
54022;BME280;39936;51.058;17.220;2023-05-10T04:03:32;101693.76;;;11.29;57.45
54022;BME280;39936;51.058;17.220;2023-05-10T04:07:34;101692.85;;;11.39;56.07
54022;BME280;39936;51.058;17.220;2023-05-10T04:11:22;101691.37;;;11.69;54.54
54022;BME280;39936;51.058;17.220;2023-05-10T04:14:43;101688.02;;;11.99;53.80
54022;BME280;39936;51.058;17.220;2023-05-10T04:18:20;101687.30;;;12.57;53.57
54022;BME280;39936;51.058;17.220;2023-05-10T04:22:02;101679.84;;;13.52;51.61
54022;BME280;39936;51.058;17.220;2023-05-10T04:29:36;101664.39;;;14.83;48.15
54022;BME280;39936;51.058;17.220;2023-05-10T04:33:42;101676.58;;;14.68;48.05
54022;BME280;39936;51.058;17.220;2023-05-10T04:37:37;101674.83;;;14.62;47.88
54022;BME280;39936;51.058;17.220;2023-05-10T04:41:03;101676.79;;;13.50;49.11
54022;BME280;39936;51.058;17.220;2023-05-10T04:44:29;101686.78;;;13.00;50.79
54022;BME280;39936;51.058;17.220;2023-05-10T04:48:26;101662.20;;;12.31;51.91
54022;BME280;39936;51.058;17.220;2023-05-10T04:51:41;101692.55;;;12.13;53.17
54022;BME280;39936;51.058;17.220;2023-05-10T04:56:05;101694.51;;;12.07;53.43
54022;BME280;39936;51.058;17.220;2023-05-10T04:59:45;101697.65;;;11.96;54.07
54022;BME280;39936;51.058;17.220;2023-05-10T05:03:21;101695.05;;;12.09;54.31
54022;BME280;39936;51.058;17.220;2023-05-10T05:06:45;101692.20;;;12.02;54.13
54022;BME280;39936;51.058;17.220;2023-05-10T05:10:56;101693.41;;;12.07;54.26
54022;BME280;39936;51.058;17.220;2023-05-10T05:15:08;101688.43;;;12.19;54.47
54022;BME280;39936;51.058;17.220;2023-05-10T05:19:23;101688.95;;;12.16;53.39
54022;BME280;39936;51.058;17.220;2023-05-10T05:23:01;101688.25;;;12.12;53.60
54022;BME280;39936;51.058;17.220;2023-05-10T05:26:56;101686.31;;;12.12;54.17
54022;BME280;39936;51.058;17.220;2023-05-10T05:30:33;101689.28;;;12.22;54.48
54022;BME280;39936;51.058;17.220;2023-05-10T05:34:35;101679.88;;;12.39;53.94
54022;BME280;39936;51.058;17.220;2023-05-10T05:38:07;101683.54;;;12.35;53.40
54022;BME280;39936;51.058;17.220;2023-05-10T05:41:28;101678.99;;;12.39;54.07
54022;BME280;39936;51.058;17.220;2023-05-10T05:45:23;101680.22;;;12.47;54.17
54022;BME280;39936;51.058;17.220;2023-05-10T05:49:14;101667.51;;;12.57;53.15
54022;BME280;39936;51.058;17.220;2023-05-10T05:52:33;101677.55;;;12.82;53.61
54022;BME280;39936;51.058;17.220;2023-05-10T05:55:57;101675.37;;;12.94;53.63
54022;BME280;39936;51.058;17.220;2023-05-10T05:59:28;101664.95;;;13.02;53.30
54022;BME280;39936;51.058;17.220;2023-05-10T06:03:10;101664.37;;;13.11;53.10
54022;BME280;39936;51.058;17.220;2023-05-10T06:06:26;101669.20;;;13.19;53.25
54022;BME280;39936;51.058;17.220;2023-05-10T06:10:00;101675.74;;;13.43;52.59
54022;BME280;39936;51.058;17.220;2023-05-10T06:14:02;101641.93;;;13.44;51.55
54022;BME280;39936;51.058;17.220;2023-05-10T06:17:42;101671.01;;;13.61;51.82
54022;BME280;39936;51.058;17.220;2023-05-10T06:21:25;101680.56;;;13.59;52.78
54022;BME280;39936;51.058;17.220;2023-05-10T06:25:11;101681.91;;;13.72;51.89
54022;BME280;39936;51.058;17.220;2023-05-10T06:29:35;101683.25;;;13.92;51.53
54022;BME280;39936;51.058;17.220;2023-05-10T06:32:53;101677.13;;;13.91;52.29
54022;BME280;39936;51.058;17.220;2023-05-10T06:36:31;101673.42;;;13.75;51.86
54022;BME280;39936;51.058;17.220;2023-05-10T06:40:11;101670.16;;;13.76;52.34
54022;BME280;39936;51.058;17.220;2023-05-10T06:44:37;101645.03;;;13.82;50.86
54022;BME280;39936;51.058;17.220;2023-05-10T06:47:50;101668.20;;;14.01;51.14
54022;BME280;39936;51.058;17.220;2023-05-10T06:51:06;101653.48;;;13.90;52.27
54022;BME280;39936;51.058;17.220;2023-05-10T06:54:44;101642.98;;;13.81;51.18
54022;BME280;39936;51.058;17.220;2023-05-10T06:58:04;101658.36;;;14.21;51.38
54022;BME280;39936;51.058;17.220;2023-05-10T07:01:24;101659.65;;;14.54;51.10
54022;BME280;39936;51.058;17.220;2023-05-10T07:04:43;101658.95;;;14.37;50.80
54022;BME280;39936;51.058;17.220;2023-05-10T07:08:14;101628.34;;;14.26;50.64
54022;BME280;39936;51.058;17.220;2023-05-10T07:11:43;101656.09;;;14.59;50.89
54022;BME280;39936;51.058;17.220;2023-05-10T07:15:44;101645.67;;;14.91;50.78
54022;BME280;39936;51.058;17.220;2023-05-10T07:19:02;101641.44;;;15.32;50.33
54022;BME280;39936;51.058;17.220;2023-05-10T07:22:34;101639.59;;;15.69;51.29
54022;BME280;39936;51.058;17.220;2023-05-10T07:29:48;101625.81;;;16.21;49.68
54022;BME280;39936;51.058;17.220;2023-05-10T07:33:20;101623.31;;;16.28;49.10
54022;BME280;39936;51.058;17.220;2023-05-10T07:37:21;101607.29;;;15.98;48.66
54022;BME280;39936;51.058;17.220;2023-05-10T07:41:01;101627.00;;;16.23;49.62
54022;BME280;39936;51.058;17.220;2023-05-10T07:45:29;101618.49;;;16.45;49.74
54022;BME280;39936;51.058;17.220;2023-05-10T07:48:42;101609.20;;;16.52;48.23
54022;BME280;39936;51.058;17.220;2023-05-10T07:51:59;101616.17;;;16.62;49.45
54022;BME280;39936;51.058;17.220;2023-05-10T07:55:39;101609.24;;;16.83;50.60
54022;BME280;39936;51.058;17.220;2023-05-10T07:59:44;101604.10;;;16.70;48.63
54022;BME280;39936;51.058;17.220;2023-05-10T08:03:23;101607.80;;;16.69;49.01
54022;BME280;39936;51.058;17.220;2023-05-10T08:06:46;101605.46;;;16.79;49.40
54022;BME280;39936;51.058;17.220;2023-05-10T08:10:57;101605.54;;;17.01;48.95
54022;BME280;39936;51.058;17.220;2023-05-10T08:14:58;101600.23;;;16.95;49.11
54022;BME280;39936;51.058;17.220;2023-05-10T08:18:46;101594.42;;;16.80;49.11
54022;BME280;39936;51.058;17.220;2023-05-10T08:22:34;101594.10;;;17.06;50.13
54022;BME280;39936;51.058;17.220;2023-05-10T08:26:25;101589.77;;;17.28;49.82
54022;BME280;39936;51.058;17.220;2023-05-10T08:30:06;101587.61;;;17.52;48.29
54022;BME280;39936;51.058;17.220;2023-05-10T08:33:46;101585.73;;;17.53;48.19
54022;BME280;39936;51.058;17.220;2023-05-10T08:37:32;101583.35;;;17.62;48.67
54022;BME280;39936;51.058;17.220;2023-05-10T08:41:20;101584.21;;;17.80;47.75
54022;BME280;39936;51.058;17.220;2023-05-10T08:45:39;101557.13;;;17.79;48.74
54022;BME280;39936;51.058;17.220;2023-05-10T08:49:02;101587.21;;;17.62;47.86
54022;BME280;39936;51.058;17.220;2023-05-10T08:52:43;101583.58;;;17.81;49.02
54022;BME280;39936;51.058;17.220;2023-05-10T08:56:16;101573.39;;;18.02;48.24
54022;BME280;39936;51.058;17.220;2023-05-10T08:59:35;101577.32;;;17.85;46.74
54022;BME280;39936;51.058;17.220;2023-05-10T09:03:41;101577.97;;;18.00;47.76
54022;BME280;39936;51.058;17.220;2023-05-10T09:07:20;101569.20;;;18.29;47.32
54022;BME280;39936;51.058;17.220;2023-05-10T09:11:14;101572.37;;;17.93;46.23
54022;BME280;39936;51.058;17.220;2023-05-10T09:14:38;101574.92;;;18.00;47.00
54022;BME280;39936;51.058;17.220;2023-05-10T09:18:16;101564.70;;;18.24;48.03
54022;BME280;39936;51.058;17.220;2023-05-10T09:21:55;101575.86;;;17.88;46.49
54022;BME280;39936;51.058;17.220;2023-05-10T09:25:34;101578.82;;;17.93;48.85
54022;BME280;39936;51.058;17.220;2023-05-10T09:29:16;101575.57;;;18.35;47.81
54022;BME280;39936;51.058;17.220;2023-05-10T09:32:57;101582.33;;;18.50;48.29
54022;BME280;39936;51.058;17.220;2023-05-10T09:36:23;101575.84;;;18.40;48.01
54022;BME280;39936;51.058;17.220;2023-05-10T09:40:26;101574.57;;;18.62;46.89
54022;BME280;39936;51.058;17.220;2023-05-10T09:44:07;101573.12;;;18.94;46.94
54022;BME280;39936;51.058;17.220;2023-05-10T09:47:43;101568.20;;;19.15;45.43
54022;BME280;39936;51.058;17.220;2023-05-10T09:51:35;101570.77;;;18.70;45.08
54022;BME280;39936;51.058;17.220;2023-05-10T09:55:01;101549.77;;;18.41;44.76
54022;BME280;39936;51.058;17.220;2023-05-10T09:59:01;101574.73;;;17.97;46.12
54022;BME280;39936;51.058;17.220;2023-05-10T10:02:39;101545.84;;;18.11;48.07
54022;BME280;39936;51.058;17.220;2023-05-10T10:06:19;101560.63;;;18.72;47.32
54022;BME280;39936;51.058;17.220;2023-05-10T10:09:43;101551.71;;;19.22;46.94
54022;BME280;39936;51.058;17.220;2023-05-10T10:13:43;101531.59;;;19.31;46.58
54022;BME280;39936;51.058;17.220;2023-05-10T10:17:27;101549.62;;;19.41;46.56
54022;BME280;39936;51.058;17.220;2023-05-10T10:20:46;101532.52;;;19.31;45.01
54022;BME280;39936;51.058;17.220;2023-05-10T10:24:06;101533.23;;;18.94;44.23
54022;BME280;39936;51.058;17.220;2023-05-10T10:40:32;101534.00;;;18.96;45.27
54022;BME280;39936;51.058;17.220;2023-05-10T10:44:33;101529.10;;;19.46;46.07
54022;BME280;39936;51.058;17.220;2023-05-10T10:59:43;101516.77;;;19.49;42.80
54022;BME280;39936;51.058;17.220;2023-05-10T11:03:22;101534.73;;;19.16;44.68
54022;BME280;39936;51.058;17.220;2023-05-10T11:11:27;101531.64;;;18.95;44.30
54022;BME280;39936;51.058;17.220;2023-05-10T11:14:52;101522.39;;;19.30;46.14
54022;BME280;39936;51.058;17.220;2023-05-10T11:18:19;101496.08;;;19.52;45.20
54022;BME280;39936;51.058;17.220;2023-05-10T11:26:00;101517.94;;;19.59;42.30
54022;BME280;39936;51.058;17.220;2023-05-10T11:29:16;101492.67;;;19.61;43.14
54022;BME280;39936;51.058;17.220;2023-05-10T11:33:09;101508.07;;;19.67;42.79
54022;BME280;39936;51.058;17.220;2023-05-10T11:36:37;101484.98;;;19.07;42.25
54022;BME280;39936;51.058;17.220;2023-05-10T11:40:26;101479.81;;;18.79;44.02
54022;BME280;39936;51.058;17.220;2023-05-10T11:43:43;101505.57;;;19.27;44.86
54022;BME280;39936;51.058;17.220;2023-05-10T11:47:41;101498.41;;;19.29;42.34
54022;BME280;39936;51.058;17.220;2023-05-10T11:51:34;101507.12;;;19.52;43.73
54022;BME280;39936;51.058;17.220;2023-05-10T11:55:20;101504.87;;;19.43;43.83
54022;BME280;39936;51.058;17.220;2023-05-10T11:58:57;101502.29;;;19.41;42.22
54022;BME280;39936;51.058;17.220;2023-05-10T12:02:51;101504.97;;;19.25;43.83
54022;BME280;39936;51.058;17.220;2023-05-10T12:06:59;101501.87;;;19.58;44.18
54022;BME280;39936;51.058;17.220;2023-05-10T12:11:09;101500.80;;;19.81;42.27
54022;BME280;39936;51.058;17.220;2023-05-10T12:14:50;101512.14;;;19.61;41.36
54022;BME280;39936;51.058;17.220;2023-05-10T12:22:05;101499.17;;;19.59;41.12
54022;BME280;39936;51.058;17.220;2023-05-10T12:25:32;101505.19;;;19.60;41.13
54022;BME280;39936;51.058;17.220;2023-05-10T12:28:54;101497.44;;;19.70;44.06
54022;BME280;39936;51.058;17.220;2023-05-10T12:37:03;101487.84;;;20.54;41.65
54022;BME280;39936;51.058;17.220;2023-05-10T12:41:34;101488.88;;;20.68;41.17
54022;BME280;39936;51.058;17.220;2023-05-10T12:45:29;101485.77;;;20.66;40.16
54022;BME280;39936;51.058;17.220;2023-05-10T12:49:13;101492.22;;;20.82;39.69
54022;BME280;39936;51.058;17.220;2023-05-10T12:53:15;101495.72;;;20.74;39.96
54022;BME280;39936;51.058;17.220;2023-05-10T12:57:04;101495.52;;;20.38;39.12
54022;BME280;39936;51.058;17.220;2023-05-10T13:00:45;101496.05;;;19.85;40.54
54022;BME280;39936;51.058;17.220;2023-05-10T13:04:22;101488.25;;;20.29;42.61
54022;BME280;39936;51.058;17.220;2023-05-10T13:08:10;101468.35;;;20.50;38.54
54022;BME280;39936;51.058;17.220;2023-05-10T13:11:47;101489.21;;;20.40;39.41
54022;BME280;39936;51.058;17.220;2023-05-10T13:16:02;101485.59;;;20.43;40.30
54022;BME280;39936;51.058;17.220;2023-05-10T13:19:47;101481.53;;;20.55;38.29
54022;BME280;39936;51.058;17.220;2023-05-10T13:23:26;101480.87;;;20.46;38.92
54022;BME280;39936;51.058;17.220;2023-05-10T13:26:51;101484.25;;;20.36;38.81
54022;BME280;39936;51.058;17.220;2023-05-10T13:30:23;101463.83;;;20.43;40.38
54022;BME280;39936;51.058;17.220;2023-05-10T13:34:17;101468.98;;;20.73;39.40
54022;BME280;39936;51.058;17.220;2023-05-10T13:37:37;101465.28;;;20.89;38.62
54022;BME280;39936;51.058;17.220;2023-05-10T13:41:24;101467.83;;;20.60;37.69
54022;BME280;39936;51.058;17.220;2023-05-10T13:45:05;101459.41;;;20.28;39.47
54022;BME280;39936;51.058;17.220;2023-05-10T13:48:43;101468.49;;;20.28;39.54
54022;BME280;39936;51.058;17.220;2023-05-10T13:52:57;101458.88;;;20.16;37.17
54022;BME280;39936;51.058;17.220;2023-05-10T13:56:15;101459.27;;;19.98;38.02
54022;BME280;39936;51.058;17.220;2023-05-10T14:00:06;101454.43;;;20.18;38.69
54022;BME280;39936;51.058;17.220;2023-05-10T14:04:19;101448.21;;;20.52;37.76
54022;BME280;39936;51.058;17.220;2023-05-10T14:08:10;101445.80;;;20.57;39.11
54022;BME280;39936;51.058;17.220;2023-05-10T14:11:56;101452.64;;;20.54;37.35
54022;BME280;39936;51.058;17.220;2023-05-10T14:15:14;101450.53;;;20.57;38.79
54022;BME280;39936;51.058;17.220;2023-05-10T14:19:12;101448.64;;;20.39;39.00
54022;BME280;39936;51.058;17.220;2023-05-10T14:23:12;101446.26;;;20.36;38.99
54022;BME280;39936;51.058;17.220;2023-05-10T14:27:01;101444.60;;;20.13;39.67
54022;BME280;39936;51.058;17.220;2023-05-10T14:31:01;101442.89;;;20.23;40.16
54022;BME280;39936;51.058;17.220;2023-05-10T14:34:40;101428.24;;;20.21;39.20
54022;BME280;39936;51.058;17.220;2023-05-10T14:38:34;101438.87;;;20.00;40.78
54022;BME280;39936;51.058;17.220;2023-05-10T14:42:32;101430.35;;;20.41;41.04
54022;BME280;39936;51.058;17.220;2023-05-10T14:49:55;101435.50;;;21.07;38.81
54022;BME280;39936;51.058;17.220;2023-05-10T14:53:22;101435.85;;;20.41;37.97
54022;BME280;39936;51.058;17.220;2023-05-10T14:57:34;101435.62;;;20.66;39.33
54022;BME280;39936;51.058;17.220;2023-05-10T15:01:35;101446.99;;;20.89;37.84
54022;BME280;39936;51.058;17.220;2023-05-10T15:04:55;101436.17;;;20.61;37.99
54022;BME280;39936;51.058;17.220;2023-05-10T15:08:36;101431.18;;;20.42;37.85
54022;BME280;39936;51.058;17.220;2023-05-10T15:12:26;101444.13;;;20.58;38.66
54022;BME280;39936;51.058;17.220;2023-05-10T15:15:51;101443.66;;;20.91;38.93
54022;BME280;39936;51.058;17.220;2023-05-10T15:19:07;101444.05;;;20.91;37.90
54022;BME280;39936;51.058;17.220;2023-05-10T15:23:03;101424.41;;;20.55;38.20
54022;BME280;39936;51.058;17.220;2023-05-10T15:26:18;101417.13;;;20.54;38.20
54022;BME280;39936;51.058;17.220;2023-05-10T15:33:25;101444.27;;;20.83;39.65
54022;BME280;39936;51.058;17.220;2023-05-10T15:37:07;101443.26;;;20.49;39.48
54022;BME280;39936;51.058;17.220;2023-05-10T15:40:45;101440.78;;;20.42;39.09
54022;BME280;39936;51.058;17.220;2023-05-10T15:44:06;101441.14;;;20.32;38.52
54022;BME280;39936;51.058;17.220;2023-05-10T15:47:55;101441.23;;;20.07;39.17
54022;BME280;39936;51.058;17.220;2023-05-10T15:52:17;101445.00;;;19.87;39.47
54022;BME280;39936;51.058;17.220;2023-05-10T15:56:10;101443.38;;;19.73;40.50
54022;BME280;39936;51.058;17.220;2023-05-10T15:59:54;101448.86;;;19.82;40.55
54022;BME280;39936;51.058;17.220;2023-05-10T16:03:55;101449.35;;;19.76;41.17
54022;BME280;39936;51.058;17.220;2023-05-10T16:07:17;101455.84;;;19.63;41.29
54022;BME280;39936;51.058;17.220;2023-05-10T16:10:38;101453.02;;;19.52;40.90
54022;BME280;39936;51.058;17.220;2023-05-10T16:13:59;101457.58;;;19.23;40.64
54022;BME280;39936;51.058;17.220;2023-05-10T16:17:40;101444.63;;;18.85;41.24
54022;BME280;39936;51.058;17.220;2023-05-10T16:21:02;101464.44;;;18.80;42.39
54022;BME280;39936;51.058;17.220;2023-05-10T16:24:50;101434.79;;;18.57;42.17
54022;BME280;39936;51.058;17.220;2023-05-10T16:28:33;101466.84;;;18.92;42.67
54022;BME280;39936;51.058;17.220;2023-05-10T16:32:25;101467.02;;;19.16;42.53
54022;BME280;39936;51.058;17.220;2023-05-10T16:35:51;101463.43;;;18.99;41.75
54022;BME280;39936;51.058;17.220;2023-05-10T16:43:33;101463.26;;;18.99;42.06
54022;BME280;39936;51.058;17.220;2023-05-10T16:47:14;101464.02;;;19.07;42.11
54022;BME280;39936;51.058;17.220;2023-05-10T16:50:50;101467.86;;;19.19;41.92
54022;BME280;39936;51.058;17.220;2023-05-10T16:54:22;101471.89;;;19.15;41.78
54022;BME280;39936;51.058;17.220;2023-05-10T17:01:56;101460.75;;;18.76;42.57
54022;BME280;39936;51.058;17.220;2023-05-10T17:05:35;101483.64;;;18.72;42.80
54022;BME280;39936;51.058;17.220;2023-05-10T17:08:51;101483.81;;;18.66;43.18
54022;BME280;39936;51.058;17.220;2023-05-10T17:12:09;101491.15;;;18.64;43.25
54022;BME280;39936;51.058;17.220;2023-05-10T17:16:00;101475.22;;;18.65;43.40
54022;BME280;39936;51.058;17.220;2023-05-10T17:19:21;101492.09;;;18.87;43.21
54022;BME280;39936;51.058;17.220;2023-05-10T17:27:23;101495.78;;;18.75;43.35
54022;BME280;39936;51.058;17.220;2023-05-10T17:30:42;101474.73;;;18.65;43.49
54022;BME280;39936;51.058;17.220;2023-05-10T17:34:20;101504.49;;;18.94;43.61
54022;BME280;39936;51.058;17.220;2023-05-10T17:37:46;101505.09;;;18.96;43.72
54022;BME280;39936;51.058;17.220;2023-05-10T17:41:59;101506.99;;;18.91;43.84
54022;BME280;39936;51.058;17.220;2023-05-10T17:46:01;101506.75;;;18.70;44.17
54022;BME280;39936;51.058;17.220;2023-05-10T17:49:37;101495.78;;;18.42;44.54
54022;BME280;39936;51.058;17.220;2023-05-10T17:53:13;101493.84;;;18.12;45.16
54022;BME280;39936;51.058;17.220;2023-05-10T17:56:31;101524.51;;;18.10;45.20
54022;BME280;39936;51.058;17.220;2023-05-10T18:03:59;101527.86;;;17.85;45.60
54022;BME280;39936;51.058;17.220;2023-05-10T18:07:34;101531.14;;;17.68;46.03
54022;BME280;39936;51.058;17.220;2023-05-10T18:11:56;101533.49;;;17.52;46.24
54022;BME280;39936;51.058;17.220;2023-05-10T18:15:31;101540.70;;;17.40;46.31
54022;BME280;39936;51.058;17.220;2023-05-10T18:18:46;101518.26;;;17.17;46.42
54022;BME280;39936;51.058;17.220;2023-05-10T18:22:08;101548.39;;;17.29;46.56
54022;BME280;39936;51.058;17.220;2023-05-10T18:25:37;101549.87;;;17.17;46.88
54022;BME280;39936;51.058;17.220;2023-05-10T18:28:51;101552.32;;;17.05;47.09
54022;BME280;39936;51.058;17.220;2023-05-10T18:32:28;101555.01;;;16.94;47.80
54022;BME280;39936;51.058;17.220;2023-05-10T18:36:06;101531.47;;;16.55;48.44
54022;BME280;39936;51.058;17.220;2023-05-10T18:39:28;101561.82;;;16.56;48.58
54022;BME280;39936;51.058;17.220;2023-05-10T18:43:39;101541.89;;;16.29;49.17
54022;BME280;39936;51.058;17.220;2023-05-10T18:47:42;101572.98;;;16.30;49.49
54022;BME280;39936;51.058;17.220;2023-05-10T18:51:02;101580.37;;;16.23;49.70
54022;BME280;39936;51.058;17.220;2023-05-10T18:54:40;101577.12;;;16.15;49.60
54022;BME280;39936;51.058;17.220;2023-05-10T18:58:11;101560.89;;;15.91;50.14
54022;BME280;39936;51.058;17.220;2023-05-10T19:01:49;101557.56;;;15.72;50.26
54022;BME280;39936;51.058;17.220;2023-05-10T19:05:37;101589.08;;;15.76;51.02
54022;BME280;39936;51.058;17.220;2023-05-10T19:09:58;101586.40;;;15.58;51.35
54022;BME280;39936;51.058;17.220;2023-05-10T19:13:15;101583.39;;;15.39;51.71
54022;BME280;39936;51.058;17.220;2023-05-10T19:16:37;101574.99;;;15.22;52.01
54022;BME280;39936;51.058;17.220;2023-05-10T19:20:20;101605.50;;;15.31;52.39
54022;BME280;39936;51.058;17.220;2023-05-10T19:24:04;101613.07;;;15.23;52.84
54022;BME280;39936;51.058;17.220;2023-05-10T19:27:43;101611.55;;;15.17;53.18
54022;BME280;39936;51.058;17.220;2023-05-10T19:31:01;101616.67;;;15.09;54.72
54022;BME280;39936;51.058;17.220;2023-05-10T19:34:36;101619.38;;;14.92;55.92
54022;BME280;39936;51.058;17.220;2023-05-10T19:38:27;101595.05;;;14.43;56.61
54022;BME280;39936;51.058;17.220;2023-05-10T19:42:18;101625.26;;;14.61;56.01
54022;BME280;39936;51.058;17.220;2023-05-10T19:45:36;101595.62;;;14.43;55.77
54022;BME280;39936;51.058;17.220;2023-05-10T19:49:13;101601.35;;;14.43;56.11
54022;BME280;39936;51.058;17.220;2023-05-10T19:52:46;101632.07;;;14.53;56.61
54022;BME280;39936;51.058;17.220;2023-05-10T19:56:25;101636.15;;;14.41;57.34
54022;BME280;39936;51.058;17.220;2023-05-10T20:00:17;101607.70;;;14.13;57.16
54022;BME280;39936;51.058;17.220;2023-05-10T20:03:47;101640.47;;;14.30;56.53
54022;BME280;39936;51.058;17.220;2023-05-10T20:11:18;101646.17;;;14.32;56.48
54022;BME280;39936;51.058;17.220;2023-05-10T20:15:02;101632.08;;;14.21;55.98
54022;BME280;39936;51.058;17.220;2023-05-10T20:18:46;101652.45;;;14.34;56.14
54022;BME280;39936;51.058;17.220;2023-05-10T20:26:37;101663.19;;;14.25;57.36
54022;BME280;39936;51.058;17.220;2023-05-10T20:34:17;101662.30;;;14.21;57.32
54022;BME280;39936;51.058;17.220;2023-05-10T20:38:17;101669.10;;;14.22;57.11
54022;BME280;39936;51.058;17.220;2023-05-10T20:41:36;101646.62;;;14.03;57.49
54022;BME280;39936;51.058;17.220;2023-05-10T20:52:54;101674.01;;;13.95;56.61
54022;BME280;39936;51.058;17.220;2023-05-10T20:56:14;101673.19;;;13.92;56.29
54022;BME280;39936;51.058;17.220;2023-05-10T21:00:23;101640.34;;;13.72;56.35
54022;BME280;39936;51.058;17.220;2023-05-10T21:04:04;101644.62;;;13.71;56.46
54022;BME280;39936;51.058;17.220;2023-05-10T21:07:58;101673.93;;;13.91;56.66
54022;BME280;39936;51.058;17.220;2023-05-10T21:15:49;101667.49;;;13.77;57.43
54022;BME280;39936;51.058;17.220;2023-05-10T21:19:37;101668.77;;;13.69;57.93
54022;BME280;39936;51.058;17.220;2023-05-10T21:22:56;101672.41;;;13.63;57.76
54022;BME280;39936;51.058;17.220;2023-05-10T21:27:19;101672.30;;;13.57;57.41
54022;BME280;39936;51.058;17.220;2023-05-10T21:31:45;101675.80;;;13.55;56.90